Time;durP1;ratioP1;P1;durP2;ratioP2;P2;SDS_P1;SDS_P2;PMS_P1;PMS_P2;Temp;Humidity;BMP_temperature;BMP_pressure;BME280_temperature;BME280_humidity;BME280_pressure;Samples;Min_cycle;Max_cycle;Signal;HPM_P1;HPM_P2
2021/04/07 00:00:18;;;;;;;;;;;4.30;59.50;4.60;99636.00;;;;339321;28;88594;-94
2021/04/07 00:00:36;;;;;;;;;;;4.30;59.80;4.70;99642.00;;;;335723;29;87088;-92
2021/04/07 00:00:48;;;;;;;;;;;4.30;59.80;4.70;99631.00;;;;338047;28;87037;-93
2021/04/07 00:00:59;;;;;;;;;;;4.30;59.80;4.70;99643.00;;;;339781;28;89513;-93
2021/04/07 00:01:10;;;;;;;;;;;4.30;60.30;4.60;99641.00;;;;340353;28;86237;-93
2021/04/07 00:01:21;;;;;;;;;;;4.30;61.20;4.60;99641.00;;;;340790;28;89632;-92
2021/04/07 00:01:33;;;;;;;;;;;4.30;60.90;4.70;99637.00;;;;339362;28;86130;-93
2021/04/07 00:01:44;;;;;;;;;;;4.20;60.60;4.60;99643.00;;;;339580;28;87692;-94
2021/04/07 00:01:55;;;;;;;;;;;4.20;60.60;4.60;99651.00;;;;338203;28;86547;-94
2021/04/07 00:02:07;;;;;;;;;;;4.20;60.80;4.60;99646.00;;;;338177;28;90027;-94
2021/04/07 00:02:18;;;;;;;;;;;4.30;61.00;4.60;99655.00;;;;338404;28;86032;-95
2021/04/07 00:02:30;;;;;;;;;;;4.20;61.10;4.60;99654.00;;;;340892;28;88932;-92
2021/04/07 00:02:41;;;;;;;;;;;4.20;61.00;4.60;99653.00;;;;337107;28;87015;-92
2021/04/07 00:02:53;;;;;;;;;;;4.20;61.40;4.60;99647.00;;;;339927;28;87166;-92
2021/04/07 00:03:05;;;;;;;;;;;4.20;61.20;4.60;99641.00;;;;340972;28;89093;-93
2021/04/07 00:03:16;;;;;;;;;;;4.20;61.40;4.60;99642.00;;;;338495;28;87048;-89
2021/04/07 00:03:28;;;;;;;;;;;4.20;61.40;4.50;99654.00;;;;339419;28;87015;-92
2021/04/07 00:03:39;;;;;;;;;;;4.20;61.80;4.60;99643.00;;;;342713;28;88764;-92
2021/04/07 00:03:50;;;;;;;;;;;4.20;61.60;4.60;99658.00;;;;339992;28;87538;-93
2021/04/07 00:04:01;;;;;;;;;;;4.20;61.60;4.50;99653.00;;;;339832;28;89573;-90
2021/04/07 00:04:13;;;;;;;;;;;4.10;61.70;4.50;99652.00;;;;339110;28;87110;-94
2021/04/07 00:04:24;;;;;;;;;;;4.20;61.80;4.60;99646.00;;;;339797;28;87611;-93
2021/04/07 00:04:35;;;;;;;;;;;4.20;61.70;4.60;99652.00;;;;338239;28;86465;-94
2021/04/07 00:04:49;;;;;;;;;;;4.20;61.80;4.60;99652.00;;;;337194;28;87398;-94
2021/04/07 00:05:06;;;;;;;;;;;4.10;61.70;4.60;99653.00;;;;339716;28;85954;-92
2021/04/07 00:05:20;;;;;;;;;;;4.20;61.80;4.60;99651.00;;;;339849;28;87345;-91
2021/04/07 00:05:34;;;;;;;;;;;4.20;61.70;4.60;99653.00;;;;342156;28;87563;-93
2021/04/07 00:05:46;;;;;;;;;;;4.20;61.70;4.60;99649.00;;;;339638;28;90375;-93
2021/04/07 00:05:57;;;;;;;;;;;4.10;61.80;4.60;99657.00;;;;339674;28;86042;-94
2021/04/07 00:06:08;;;;;;;;;;;4.20;61.80;4.70;99655.00;;;;342588;28;89191;-94
2021/04/07 00:06:19;;;;;;;;;;;4.20;61.90;4.70;99644.00;;;;340855;28;86977;-93
2021/04/07 00:06:34;;;;;;;;;;;4.20;61.80;4.60;99667.00;;;;342719;28;90197;-92
2021/04/07 00:06:46;;;;;;;;;;;4.20;62.00;4.60;99658.00;;;;340780;28;86111;-93
2021/04/07 00:06:57;;;;;;;;;;;4.20;61.90;4.60;99659.00;;;;341380;28;87317;-94
2021/04/07 00:07:08;;;;;;;;;;;4.20;62.10;4.60;99656.00;;;;341931;28;86874;-94
2021/04/07 00:07:19;;;;;;;;;;;4.10;62.10;4.60;99652.00;;;;342520;28;88445;-93
2021/04/07 00:07:31;;;;;;;;;;;4.10;61.90;4.50;99663.00;;;;339780;28;86952;-91
2021/04/07 00:07:47;;;;;;;;;;;4.10;63.00;4.50;99663.00;;;;342826;28;88168;-94
2021/04/07 00:07:59;;;;;;;;;;;4.10;62.30;4.50;99662.00;;;;339982;28;86064;-90
2021/04/07 00:08:11;;;;;;;;;;;4.10;62.80;4.50;99666.00;;;;338398;28;90096;-92
2021/04/07 00:08:25;;;;;;;;;;;4.10;62.50;4.60;99674.00;;;;336971;28;87198;-94
2021/04/07 00:08:37;;;;;;;;;;;4.10;62.50;4.60;99661.00;;;;338329;28;89824;-93
2021/04/07 00:08:50;;;;;;;;;;;4.10;62.60;4.50;99662.00;;;;338047;28;86990;-93
2021/04/07 00:09:04;;;;;;;;;;;4.10;62.90;4.50;99680.00;;;;338223;28;88503;-92
2021/04/07 00:09:16;;;;;;;;;;;4.10;63.00;4.50;99670.00;;;;339388;28;86003;-95
2021/04/07 00:09:27;;;;;;;;;;;4.10;62.90;4.50;99673.00;;;;339497;28;87106;-93
2021/04/07 00:09:38;;;;;;;;;;;4.10;63.10;4.50;99662.00;;;;339190;28;85997;-94
2021/04/07 00:09:49;;;;;;;;;;;4.10;63.10;4.50;99668.00;;;;337916;28;90865;-94
2021/04/07 00:10:03;;;;;;;;;;;4.10;63.20;4.50;99667.00;;;;337628;28;86073;-94
2021/04/07 00:10:15;;;;;;;;;;;4.10;63.30;4.50;99669.00;;;;339221;28;89752;-94
2021/04/07 00:10:35;;;;;;;;;;;4.10;64.20;4.20;99669.00;;;;337598;28;90228;-95
2021/04/07 00:10:46;;;;;;;11.48;3.22;;;4.10;64.50;4.20;99666.00;;;;339037;28;90360;-95
2021/04/07 00:10:58;;;;;;;9.20;3.03;;;4.00;65.50;4.30;99677.00;;;;340250;28;86137;-94
2021/04/07 00:11:09;;;;;;;7.78;2.90;;;4.00;65.80;4.30;99677.00;;;;339510;28;90592;-95
2021/04/07 00:11:20;;;;;;;6.30;2.33;;;4.00;65.90;4.20;99686.00;;;;334776;29;88690;-95
2021/04/07 00:11:32;;;;;;;6.10;2.33;;;4.00;66.40;4.30;99678.00;;;;337671;28;90504;-93
2021/04/07 00:11:43;;;;;;;8.30;2.78;;;3.90;66.70;4.20;99683.00;;;;337979;28;85998;-95
2021/04/07 00:11:54;;;;;;;7.53;2.83;;;3.90;67.60;4.20;99686.00;;;;337576;28;89130;-94
2021/04/07 00:12:06;;;;;;;6.68;2.65;;;3.90;68.70;4.10;99685.00;;;;337519;28;85363;-95
2021/04/07 00:12:17;;;;;;;5.18;2.25;;;3.90;69.50;4.00;99683.00;;;;339276;28;87185;-94
2021/04/07 00:12:29;;;;;;;3.95;2.45;;;3.90;70.60;4.00;99678.00;;;;337892;28;88580;-94
2021/04/07 00:12:41;;;;;;;5.55;2.55;;;3.80;71.50;3.90;99686.00;;;;338932;28;88702;-94
2021/04/07 00:12:52;;;;;;;6.32;2.42;;;3.80;72.70;3.90;99690.00;;;;337633;28;87344;-95
2021/04/07 00:13:05;;;;;;;5.55;2.60;;;3.80;73.10;3.90;99686.00;;;;337512;28;87730;-94
2021/04/07 00:13:16;;;;;;;3.70;2.20;;;3.80;73.80;3.90;99686.00;;;;338910;28;89079;-94
2021/04/07 00:13:28;;;;;;;3.70;2.10;;;3.70;74.40;3.80;99682.00;;;;336125;28;91096;-96
2021/04/07 00:13:39;;;;;;;3.65;2.22;;;3.70;74.90;3.80;99684.00;;;;340107;28;86016;-93
2021/04/07 00:13:50;;;;;;;5.38;2.60;;;3.70;75.70;3.70;99682.00;;;;340290;28;88325;-93
2021/04/07 00:14:08;;;;;;;6.47;2.67;;;3.60;76.60;3.80;99690.00;;;;344094;28;87784;-95
2021/04/07 00:14:20;;;;;;;6.60;2.58;;;3.70;76.00;3.90;99692.00;;;;340255;28;88282;-93
2021/04/07 00:14:31;;;;;;;4.35;2.20;;;3.60;76.80;3.70;99688.00;;;;337487;28;87125;-94
2021/04/07 00:14:43;;;;;;;3.83;2.00;;;3.60;77.30;3.80;99692.00;;;;337480;28;90244;-95
2021/04/07 00:14:54;;;;;;;2.80;1.67;;;3.60;77.30;3.80;99691.00;;;;334735;29;87117;-94
2021/04/07 00:15:20;;;;;;;3.83;2.20;;;3.60;78.10;3.90;99700.00;;;;337667;28;88389;-94
2021/04/07 00:15:31;;;;;;;4.85;2.53;;;3.50;78.00;3.90;99698.00;;;;338900;28;86845;-95
2021/04/07 00:15:43;;;;;;;4.65;2.72;;;3.60;78.60;3.90;99692.00;;;;340277;28;87750;-94
2021/04/07 00:15:54;;;;;;;4.00;2.63;;;3.60;78.70;3.90;99699.00;;;;338907;28;85845;-92
2021/04/07 00:16:06;;;;;;;4.63;3.05;;;3.50;78.30;3.80;99701.00;;;;340694;28;88057;-94
2021/04/07 00:16:17;;;;;;;4.85;2.55;;;3.60;79.50;3.90;99688.00;;;;341253;28;86272;-95
2021/04/07 00:16:29;;;;;;;4.75;2.35;;;3.60;79.30;3.90;99702.00;;;;341701;28;87304;-95
2021/04/07 00:16:40;;;;;;;4.35;2.40;;;3.60;79.30;3.80;99695.00;;;;341219;28;87469;-93
2021/04/07 00:16:51;;;;;;;3.85;2.42;;;3.50;80.30;3.80;99697.00;;;;341857;28;92217;-95
2021/04/07 00:17:03;;;;;;;3.83;2.10;;;3.60;81.00;3.80;99696.00;;;;336123;28;86903;-95
2021/04/07 00:17:15;;;;;;;2.95;1.92;;;3.50;81.30;3.70;99696.00;;;;339653;28;88082;-96
2021/04/07 00:17:26;;;;;;;3.58;2.15;;;3.50;82.00;3.80;99690.00;;;;341555;28;87154;-95
2021/04/07 00:17:38;;;;;;;4.85;2.25;;;3.50;81.80;3.70;99709.00;;;;341178;28;90830;-95
2021/04/07 00:17:50;;;;;;;5.78;2.58;;;3.50;83.10;3.70;99701.00;;;;341631;28;87360;-95
2021/04/07 00:18:02;;;;;;;4.82;2.42;;;3.50;84.10;3.80;99701.00;;;;340217;28;90232;-94
2021/04/07 00:18:14;;;;;;;5.15;2.22;;;3.50;83.70;3.70;99704.00;;;;339097;28;87397;-93
2021/04/07 00:18:25;;;;;;;4.53;2.22;;;3.50;84.40;3.60;99705.00;;;;340399;28;87381;-95
2021/04/07 00:18:36;;;;;;;4.63;2.58;;;3.40;85.40;3.70;99708.00;;;;336409;28;86123;-96
2021/04/07 00:18:48;;;;;;;3.85;2.22;;;3.40;85.40;3.70;99687.00;;;;337750;28;91630;-95
2021/04/07 00:19:00;;;;;;;4.15;1.98;;;3.40;85.50;3.40;99705.00;;;;336378;28;86061;-94
2021/04/07 00:19:11;;;;;;;3.63;1.70;;;3.40;86.30;3.50;99701.00;;;;337464;28;91175;-94
2021/04/07 00:19:22;;;;;;;3.65;1.70;;;3.40;86.30;3.60;99694.00;;;;338558;28;87643;-94
2021/04/07 00:19:34;;;;;;;4.18;1.74;;;3.40;86.00;3.60;99699.00;;;;339893;28;89852;-94
2021/04/07 00:19:45;;;;;;;5.75;2.05;;;3.40;86.30;3.50;99699.00;;;;341947;28;86079;-96
2021/04/07 00:19:56;;;;;;;5.63;2.13;;;3.40;86.90;3.30;99705.00;;;;340373;28;88927;-92
2021/04/07 00:20:13;;;;;;;4.82;2.35;;;3.30;87.60;3.40;99704.00;;;;339539;28;86893;-94
2021/04/07 00:20:26;;;;;;;3.92;2.17;;;3.30;87.60;3.60;99701.00;;;;338966;28;87333;-94
2021/04/07 00:20:37;;;;;;;3.92;2.20;;;3.30;87.20;3.50;99700.00;;;;336149;28;86909;-94
2021/04/07 00:20:49;;;;;;;3.50;2.45;;;3.30;87.90;3.50;99692.00;;;;338911;28;91160;-95
2021/04/07 00:21:00;;;;;;;3.67;2.50;;;3.30;88.30;3.50;99696.00;;;;341424;28;86831;-89
2021/04/07 00:21:12;;;;;;;5.28;2.20;;;3.30;88.30;3.40;99694.00;;;;340189;28;88069;-89
2021/04/07 00:21:23;;;;;;;5.82;2.17;;;3.20;89.50;3.50;99697.00;;;;340058;28;86868;-95
2021/04/07 00:21:35;;;;;;;7.28;2.63;;;3.20;88.90;3.60;99697.00;;;;337621;28;91491;-96
2021/04/07 00:21:46;;;;;;;5.42;2.78;;;3.20;88.40;3.50;99689.00;;;;340060;28;87909;-94
2021/04/07 00:21:57;;;;;;;4.30;2.53;;;3.20;88.60;3.50;99695.00;;;;338738;28;91759;-93
2021/04/07 00:22:09;;;;;;;4.50;2.33;;;3.20;88.80;3.60;99696.00;;;;340439;28;88167;-93
2021/04/07 00:22:20;;;;;;;4.56;2.28;;;3.20;88.80;3.60;99688.00;;;;341484;28;87282;-94
2021/04/07 00:22:31;;;;;;;4.13;1.95;;;3.20;88.60;3.60;99688.00;;;;338830;28;87104;-95
2021/04/07 00:22:43;;;;;;;3.38;2.17;;;3.20;88.60;3.40;99704.00;;;;340345;28;88089;-94
2021/04/07 00:22:54;;;;;;;3.30;2.30;;;3.20;89.40;3.40;99705.00;;;;340261;28;85981;-93
2021/04/07 00:23:06;;;;;;;3.30;2.45;;;3.20;89.70;3.50;99698.00;;;;341462;28;90402;-95
2021/04/07 00:23:17;;;;;;;3.20;2.55;;;3.20;90.10;3.50;99693.00;;;;340054;28;88996;-93
2021/04/07 00:23:29;;;;;;;3.22;2.40;;;3.20;89.60;3.40;99699.00;;;;341554;28;88930;-96
2021/04/07 00:23:40;;;;;;;3.53;2.53;;;3.20;90.00;3.50;99702.00;;;;340153;28;88123;-95
2021/04/07 00:23:51;;;;;;;3.88;2.35;;;3.20;89.80;3.40;99692.00;;;;341642;28;87697;-93
2021/04/07 00:24:03;;;;;;;3.60;2.35;;;3.20;89.70;3.50;99701.00;;;;341237;28;89049;-94
2021/04/07 00:24:14;;;;;;;4.18;2.30;;;3.20;89.40;3.60;99699.00;;;;338951;28;88616;-94
2021/04/07 00:24:25;;;;;;;3.63;2.30;;;3.20;89.50;3.60;99696.00;;;;338703;28;87833;-94
2021/04/07 00:24:37;;;;;;;3.70;2.20;;;3.20;89.20;3.60;99687.00;;;;338854;28;92557;-94
2021/04/07 00:24:48;;;;;;;3.95;2.25;;;3.20;88.90;3.70;99699.00;;;;337309;28;87116;-92
2021/04/07 00:24:59;;;;;;;4.72;2.03;;;3.20;88.90;3.60;99686.00;;;;338685;28;88876;-95
2021/04/07 00:25:11;;;;;;;4.85;1.90;;;3.20;89.50;3.70;99703.00;;;;335517;28;87073;-94
2021/04/07 00:25:24;;;;;;;4.47;1.92;;;3.20;89.30;3.70;99700.00;;;;340009;28;87953;-93
2021/04/07 00:25:36;;;;;;;5.22;1.90;;;3.20;89.50;3.60;99695.00;;;;339997;28;86946;-95
2021/04/07 00:25:48;;;;;;;5.93;2.40;;;3.20;89.70;3.70;99694.00;;;;338869;28;90469;-95
2021/04/07 00:25:59;;;;;;;5.93;2.53;;;3.20;90.00;3.70;99690.00;;;;341475;28;85478;-92
2021/04/07 00:26:10;;;;;;;5.32;2.88;;;3.30;89.60;3.70;99701.00;;;;341288;28;91576;-94
2021/04/07 00:26:22;;;;;;;4.53;2.50;;;3.30;89.70;3.80;99694.00;;;;337352;28;85986;-94
2021/04/07 00:26:36;;;;;;;4.32;2.20;;;3.30;89.50;3.80;99691.00;;;;337449;28;92502;-93
2021/04/07 00:26:47;;;;;;;3.75;1.90;;;3.30;89.70;3.80;99689.00;;;;338580;28;87877;-95
2021/04/07 00:27:06;;;;;;;3.35;2.10;;;3.30;89.20;3.80;99688.00;;;;336071;28;88321;-91
2021/04/07 00:27:18;;;;;;;4.22;2.50;;;3.40;89.40;3.60;99689.00;;;;336045;28;87076;-95
2021/04/07 00:27:31;;;;;;;4.68;2.42;;;3.30;90.20;3.70;99685.00;;;;340109;28;89474;-95
2021/04/07 00:27:44;;;;;;;4.25;2.15;;;3.30;90.10;3.80;99692.00;;;;337509;28;86028;-94
2021/04/07 00:28:01;;;;;;;4.15;2.63;;;3.40;89.90;3.80;99689.00;;;;340286;28;88064;-95
2021/04/07 00:28:18;;;;;;;4.70;3.08;;;3.40;89.90;3.90;99688.00;;;;338304;28;87939;-95
2021/04/07 00:28:29;;;;;;;4.45;2.92;;;3.40;90.00;3.80;99689.00;;;;334939;29;90480;-95
2021/04/07 00:28:40;;;;;;;6.55;3.00;;;3.40;90.00;3.60;99694.00;;;;339797;28;87288;-96
2021/04/07 00:28:52;;;;;;;7.10;2.78;;;3.40;90.40;3.80;99689.00;;;;340161;28;88124;-96
2021/04/07 00:29:05;;;;;;;5.10;2.40;;;3.40;89.90;3.80;99684.00;;;;338710;28;86770;-93
2021/04/07 00:29:16;;;;;;;3.55;1.92;;;3.40;89.80;3.90;99685.00;;;;338763;28;90911;-94
2021/04/07 00:29:27;;;;;;;3.35;2.10;;;3.40;89.40;3.90;99689.00;;;;340070;28;86075;-95
2021/04/07 00:29:39;;;;;;;4.60;2.25;;;3.50;89.30;3.90;99684.00;;;;340173;28;87594;-94
2021/04/07 00:29:50;;;;;;;4.70;2.00;;;3.50;89.50;3.90;99683.00;;;;338339;28;88814;-93
2021/04/07 00:30:02;;;;;;;4.35;1.80;;;3.50;90.00;3.90;99679.00;;;;340050;28;88505;-95
2021/04/07 00:30:14;;;;;;;2.80;1.75;;;3.50;89.50;3.90;99686.00;;;;341459;28;86209;-96
2021/04/07 00:30:27;;;;;;;2.45;1.73;;;3.50;89.20;3.80;99689.00;;;;340267;28;87321;-95
2021/04/07 00:30:39;;;;;;;3.20;1.88;;;3.50;89.10;3.70;99689.00;;;;339998;28;87015;-92
2021/04/07 00:30:50;;;;;;;3.22;1.80;;;3.50;89.80;3.80;99689.00;;;;340259;28;88281;-96
2021/04/07 00:31:02;;;;;;;2.92;2.03;;;3.50;89.50;3.80;99689.00;;;;337406;28;86946;-95
2021/04/07 00:31:13;;;;;;;3.92;2.15;;;3.50;89.10;3.80;99686.00;;;;341056;28;90446;-96
2021/04/07 00:31:24;;;;;;;4.60;2.35;;;3.50;89.20;3.60;99691.00;;;;341363;28;86915;-94
2021/04/07 00:31:36;;;;;;;4.70;2.58;;;3.50;89.30;3.50;99690.00;;;;338877;28;89341;-95
2021/04/07 00:31:47;;;;;;;4.00;2.05;;;3.50;89.50;3.50;99693.00;;;;337345;28;86939;-95
2021/04/07 00:31:59;;;;;;;4.03;2.10;;;3.40;89.70;3.70;99697.00;;;;337406;28;90760;-95
2021/04/07 00:32:15;;;;;;;3.38;1.90;;;3.40;89.40;3.80;99698.00;;;;337348;28;86217;-95
2021/04/07 00:32:26;;;;;;;3.13;1.60;;;3.50;89.10;3.80;99691.00;;;;341525;28;87985;-95
2021/04/07 00:32:38;;;;;;;4.15;1.52;;;3.40;89.30;3.80;99694.00;;;;337448;28;85998;-94
2021/04/07 00:32:50;;;;;;;4.50;1.40;;;3.50;90.00;3.80;99695.00;;;;337674;28;90411;-96
2021/04/07 00:33:02;;;;;;;3.40;1.80;;;3.40;89.30;3.80;99695.00;;;;338506;28;87260;-96
2021/04/07 00:33:14;;;;;;;3.60;2.08;;;3.50;89.20;3.90;99693.00;;;;338779;28;90911;-95
2021/04/07 00:33:26;;;;;;;3.50;2.08;;;3.40;88.90;3.90;99694.00;;;;338419;28;86293;-95
2021/04/07 00:33:38;;;;;;;3.65;2.17;;;3.50;88.80;3.90;99694.00;;;;337476;28;92233;-96
2021/04/07 00:33:49;;;;;;;3.35;2.10;;;3.50;88.70;3.90;99689.00;;;;337416;28;87033;-96
2021/04/07 00:34:00;;;;;;;3.15;1.98;;;3.50;88.80;3.90;99689.00;;;;337528;28;89496;-94
2021/04/07 00:34:12;;;;;;;2.33;1.65;;;3.50;88.80;3.90;99696.00;;;;342365;28;85474;-95
2021/04/07 00:34:23;;;;;;;2.40;1.52;;;3.50;88.80;3.80;99694.00;;;;340120;28;88729;-90
2021/04/07 00:34:35;;;;;;;3.20;1.50;;;3.50;88.80;3.80;99693.00;;;;341405;28;86886;-95
2021/04/07 00:34:46;;;;;;;4.20;1.75;;;3.50;89.10;3.90;99694.00;;;;337437;28;88929;-95
2021/04/07 00:34:58;;;;;;;4.00;1.90;;;3.50;88.80;4.00;99686.00;;;;340109;28;85994;-94
2021/04/07 00:35:10;;;;;;;3.30;1.65;;;3.50;88.80;4.00;99687.00;;;;342742;28;92014;-94
2021/04/07 00:35:22;;;;;;;3.38;1.52;;;3.50;88.50;4.00;99691.00;;;;337221;28;87903;-95
2021/04/07 00:35:33;;;;;;;3.40;1.65;;;3.60;88.20;4.00;99698.00;;;;338657;28;89100;-90
2021/04/07 00:35:44;;;;;;;3.10;1.70;;;3.60;88.10;4.00;99694.00;;;;337237;28;86711;-95
2021/04/07 00:35:56;;;;;;;2.90;1.52;;;3.60;88.80;4.10;99696.00;;;;337510;28;89439;-95
2021/04/07 00:36:07;;;;;;;2.60;1.42;;;3.70;88.60;4.00;99693.00;;;;340082;28;86300;-95
2021/04/07 00:36:18;;;;;;;3.70;1.52;;;3.60;87.80;4.00;99692.00;;;;340174;28;90131;-95
2021/04/07 00:36:30;;;;;;;4.15;1.70;;;3.60;87.90;4.10;99690.00;;;;338679;28;87404;-96
2021/04/07 00:36:41;;;;;;;3.35;1.75;;;3.70;87.90;4.10;99699.00;;;;340099;28;89137;-96
2021/04/07 00:36:52;;;;;;;3.47;1.67;;;3.70;87.80;4.10;99693.00;;;;338761;28;86839;-95
2021/04/07 00:37:04;;;;;;;4.82;1.90;;;3.70;87.90;4.10;99698.00;;;;338591;28;89104;-95
2021/04/07 00:37:15;;;;;;;4.75;1.80;;;3.70;88.70;4.20;99698.00;;;;341382;28;86245;-96
2021/04/07 00:37:26;;;;;;;4.20;1.70;;;3.70;88.20;4.10;99694.00;;;;338616;28;91224;-96
2021/04/07 00:37:38;;;;;;;3.67;1.80;;;3.80;87.90;4.10;99700.00;;;;339990;28;87100;-94
2021/04/07 00:37:50;;;;;;;3.50;1.83;;;3.70;87.90;4.10;99691.00;;;;335926;28;92113;-95
2021/04/07 00:38:01;;;;;;;3.70;1.60;;;3.80;87.60;4.10;99701.00;;;;338682;28;85900;-94
2021/04/07 00:38:13;;;;;;;3.15;1.60;;;3.70;87.30;4.00;99699.00;;;;336214;28;87633;-95
2021/04/07 00:38:24;;;;;;;3.67;1.50;;;3.80;87.40;4.10;99688.00;;;;338814;28;86775;-95
2021/04/07 00:38:36;;;;;;;3.22;1.52;;;3.80;87.30;4.10;99697.00;;;;338982;28;87622;-95
2021/04/07 00:38:47;;;;;;;4.13;1.70;;;3.80;87.50;4.10;99696.00;;;;337338;28;86021;-96
2021/04/07 00:38:59;;;;;;;4.22;1.55;;;3.80;87.50;4.20;99696.00;;;;340170;28;92302;-93
2021/04/07 00:39:10;;;;;;;3.97;1.55;;;3.80;87.40;4.10;99698.00;;;;336094;28;87466;-95
2021/04/07 00:39:21;;;;;;;3.25;1.55;;;3.80;87.60;4.00;99707.00;;;;337354;28;92016;-92
2021/04/07 00:39:33;;;;;;;3.88;1.60;;;3.80;87.90;4.00;99700.00;;;;336222;28;86017;-95
2021/04/07 00:39:44;;;;;;;4.00;1.50;;;3.80;88.10;3.90;99701.00;;;;338920;28;89465;-96
2021/04/07 00:39:55;;;;;;;3.30;1.60;;;3.80;87.80;4.00;99706.00;;;;337450;28;86525;-95
2021/04/07 00:40:07;;;;;;;3.22;1.65;;;3.80;87.70;4.10;99700.00;;;;337071;28;88126;-95
2021/04/07 00:40:19;;;;;;;3.33;1.77;;;3.80;87.50;4.20;99705.00;;;;336361;28;86033;-93
2021/04/07 00:40:30;;;;;;;3.45;1.85;;;3.80;87.20;4.20;99709.00;;;;336331;28;87608;-93
2021/04/07 00:40:42;;;;;;;3.70;1.67;;;3.80;87.30;4.20;99704.00;;;;335956;28;87041;-93
2021/04/07 00:40:53;;;;;;;3.88;1.60;;;3.80;87.50;4.10;99703.00;;;;337276;28;89439;-95
2021/04/07 00:41:04;;;;;;;4.30;1.50;;;3.80;87.20;4.10;99700.00;;;;337235;28;88327;-96
2021/04/07 00:41:15;;;;;;;3.22;1.33;;;3.80;87.30;4.10;99711.00;;;;336189;28;91933;-95
2021/04/07 00:41:27;;;;;;;2.42;1.35;;;3.80;87.30;4.10;99699.00;;;;338736;28;86089;-95
2021/04/07 00:41:38;;;;;;;2.90;1.42;;;3.80;87.20;4.20;99704.00;;;;337256;28;89191;-95
2021/04/07 00:41:49;;;;;;;3.85;1.70;;;3.80;86.90;4.20;99696.00;;;;338715;28;87620;-96
2021/04/07 00:42:04;;;;;;;4.07;1.70;;;3.80;86.80;4.20;99705.00;;;;338969;28;87358;-94
2021/04/07 00:42:16;;;;;;;3.03;1.50;;;3.90;87.00;4.20;99699.00;;;;338597;28;88166;-96
2021/04/07 00:42:31;;;;;;;3.78;1.50;;;3.90;86.80;4.30;99703.00;;;;338829;28;90178;-95
2021/04/07 00:42:44;;;;;;;4.07;1.70;;;3.90;86.60;4.20;99705.00;;;;337432;28;86939;-95
2021/04/07 00:42:55;;;;;;;4.18;1.90;;;3.90;86.60;4.20;99699.00;;;;338903;28;91329;-95
2021/04/07 00:43:06;;;;;;;3.63;1.65;;;3.90;86.40;4.30;99704.00;;;;340157;28;87607;-95
2021/04/07 00:43:18;;;;;;;3.63;1.52;;;3.90;86.50;4.30;99708.00;;;;339830;28;91595;-95
2021/04/07 00:43:29;;;;;;;3.35;1.30;;;3.90;86.40;4.30;99695.00;;;;340041;28;86945;-95
2021/04/07 00:43:40;;;;;;;3.72;1.40;;;3.90;86.40;4.40;99700.00;;;;334897;29;89191;-96
2021/04/07 00:43:52;;;;;;;4.50;1.55;;;3.90;86.40;4.40;99702.00;;;;338709;28;86037;-94
2021/04/07 00:44:04;;;;;;;3.90;1.42;;;4.00;86.20;4.40;99702.00;;;;338807;28;88152;-90
2021/04/07 00:44:15;;;;;;;3.08;1.40;;;4.00;86.40;4.40;99698.00;;;;337043;28;88075;-94
2021/04/07 00:44:27;;;;;;;3.13;1.42;;;4.00;86.30;4.50;99694.00;;;;338788;28;92046;-96
2021/04/07 00:44:38;;;;;;;3.28;1.63;;;4.00;86.10;4.50;99701.00;;;;338723;28;86985;-95
2021/04/07 00:44:49;;;;;;;3.08;1.85;;;4.10;86.10;4.40;99700.00;;;;338891;28;88070;-95
2021/04/07 00:45:01;;;;;;;2.65;1.77;;;4.10;86.50;4.40;99704.00;;;;336172;28;85994;-94
2021/04/07 00:45:13;;;;;;;3.08;1.80;;;4.10;85.80;4.50;99700.00;;;;338837;28;88500;-96
2021/04/07 00:45:24;;;;;;;3.25;1.73;;;4.10;85.70;4.50;99701.00;;;;337279;28;87752;-95
2021/04/07 00:45:35;;;;;;;2.92;1.67;;;4.10;85.60;4.50;99699.00;;;;340249;28;89423;-96
2021/04/07 00:45:47;;;;;;;2.53;1.40;;;4.10;85.60;4.40;99695.00;;;;337541;28;85301;-96
2021/04/07 00:45:58;;;;;;;2.10;1.38;;;4.10;85.70;4.40;99696.00;;;;338822;28;88448;-95
2021/04/07 00:46:10;;;;;;;3.00;1.30;;;4.10;85.50;4.30;99706.00;;;;337870;28;87634;-96
2021/04/07 00:46:22;;;;;;;3.50;1.27;;;4.10;85.70;4.10;99703.00;;;;338738;28;88401;-95
2021/04/07 00:46:35;;;;;;;4.18;1.95;;;4.10;85.90;4.20;99702.00;;;;341134;28;87629;-94
2021/04/07 00:46:47;;;;;;;4.75;1.95;;;4.10;86.40;4.30;99698.00;;;;338809;28;88118;-95
2021/04/07 00:46:58;;;;;;;4.60;1.35;;;4.10;85.60;4.30;99703.00;;;;338866;28;86114;-96
2021/04/07 00:47:12;;;;;;;5.80;1.27;;;4.10;85.60;4.20;99704.00;;;;338747;28;88031;-96
2021/04/07 00:47:23;;;;;;;3.50;1.40;;;4.10;85.60;4.10;99711.00;;;;338558;28;87456;-91
2021/04/07 00:47:35;;;;;;;3.05;1.38;;;4.10;85.90;4.30;99707.00;;;;337510;28;90519;-95
2021/04/07 00:47:51;;;;;;;2.40;1.33;;;4.00;85.60;4.30;99702.00;;;;338851;28;86076;-95
2021/04/07 00:48:03;;;;;;;2.53;1.30;;;4.00;86.00;4.30;99697.00;;;;340224;28;87072;-96
2021/04/07 00:48:15;;;;;;;3.90;1.38;;;4.00;85.50;4.30;99707.00;;;;340045;28;86953;-96
2021/04/07 00:48:27;;;;;;;5.05;2.03;;;4.10;85.80;4.40;99699.00;;;;338919;28;91377;-95
2021/04/07 00:48:39;;;;;;;5.40;2.50;;;4.10;85.80;4.40;99697.00;;;;340213;28;88046;-93
2021/04/07 00:48:51;;;;;;;5.53;2.47;;;4.10;85.80;4.30;99706.00;;;;342977;28;89425;-94
2021/04/07 00:49:03;;;;;;;5.53;1.48;;;4.00;85.60;4.30;99703.00;;;;337313;28;86914;-93
2021/04/07 00:49:14;;;;;;;5.65;1.50;;;4.00;85.30;4.40;99695.00;;;;338884;28;89618;-96
2021/04/07 00:49:26;;;;;;;3.38;1.30;;;4.10;85.10;4.40;99692.00;;;;338835;28;86162;-94
2021/04/07 00:49:37;;;;;;;3.15;1.35;;;4.10;85.10;4.40;99700.00;;;;337695;28;89103;-95
2021/04/07 00:49:48;;;;;;;3.58;1.30;;;4.10;85.30;4.50;99693.00;;;;340181;28;87629;-96
2021/04/07 00:50:00;;;;;;;3.67;1.45;;;4.10;85.30;4.40;99703.00;;;;339063;28;89446;-96
2021/04/07 00:50:12;;;;;;;5.40;2.03;;;4.10;85.30;4.50;99699.00;;;;338885;28;86268;-94
2021/04/07 00:50:26;;;;;;;5.50;1.90;;;4.10;85.30;4.60;99710.00;;;;339157;28;89125;-95
2021/04/07 00:50:37;;;;;;;4.45;1.70;;;4.10;85.10;4.40;99697.00;;;;333693;29;86945;-94
2021/04/07 00:50:49;;;;;;;3.33;1.33;;;4.10;85.20;4.30;99698.00;;;;337869;28;89608;-95
2021/04/07 00:51:00;;;;;;;2.80;1.30;;;4.10;85.00;4.30;99703.00;;;;337615;28;88032;-94
2021/04/07 00:51:12;;;;;;;4.05;1.75;;;4.10;84.80;4.40;99689.00;;;;339241;28;90355;-95
2021/04/07 00:51:23;;;;;;;4.57;1.80;;;4.10;84.70;4.40;99705.00;;;;339071;28;88044;-93
2021/04/07 00:51:34;;;;;;;4.95;1.73;;;4.10;84.80;4.40;99701.00;;;;339284;28;92187;-95
2021/04/07 00:51:46;;;;;;;3.95;1.45;;;4.10;84.70;4.50;99693.00;;;;337750;28;86905;-94
2021/04/07 00:51:57;;;;;;;4.57;1.52;;;4.10;84.50;4.50;99692.00;;;;340544;28;88695;-94
2021/04/07 00:52:08;;;;;;;4.07;1.33;;;4.10;84.40;4.50;99698.00;;;;341316;28;87131;-96
2021/04/07 00:52:19;;;;;;;3.15;1.20;;;4.10;84.40;4.40;99700.00;;;;340858;28;89216;-94
2021/04/07 00:52:31;;;;;;;2.05;1.08;;;4.10;84.40;4.50;99691.00;;;;339214;28;87640;-93
2021/04/07 00:52:42;;;;;;;1.98;1.10;;;4.10;84.30;4.40;99695.00;;;;337973;28;87844;-94
2021/04/07 00:52:54;;;;;;;2.60;1.25;;;4.10;84.40;4.40;99693.00;;;;337654;28;89002;-95
2021/04/07 00:53:06;;;;;;;2.80;1.38;;;4.10;84.40;4.50;99698.00;;;;340387;28;89441;-94
2021/04/07 00:53:17;;;;;;;2.92;1.42;;;4.10;84.30;4.50;99702.00;;;;342910;28;86525;-95
2021/04/07 00:53:28;;;;;;;2.63;1.30;;;4.20;84.40;4.40;99701.00;;;;340315;28;89255;-94
2021/04/07 00:53:41;;;;;;;2.60;1.30;;;4.20;84.80;4.60;99703.00;;;;340423;28;86178;-92
2021/04/07 00:53:52;;;;;;;3.20;1.30;;;4.20;84.10;4.50;99696.00;;;;341819;28;88632;-95
2021/04/07 00:54:03;;;;;;;4.93;1.35;;;4.20;84.10;4.50;99694.00;;;;340262;28;87585;-95
2021/04/07 00:54:15;;;;;;;4.60;1.15;;;4.20;84.20;4.40;99701.00;;;;339053;28;90355;-95
2021/04/07 00:54:26;;;;;;;4.53;1.10;;;4.20;84.20;4.40;99703.00;;;;341587;28;88945;-96
2021/04/07 00:54:38;;;;;;;4.07;1.25;;;4.20;83.90;4.40;99695.00;;;;343188;28;88930;-95
2021/04/07 00:54:53;;;;;;;4.28;1.50;;;4.20;83.80;4.50;99703.00;;;;343130;28;86057;-95
2021/04/07 00:55:05;;;;;;;3.90;1.50;;;4.20;83.70;4.50;99698.00;;;;337960;28;89269;-96
2021/04/07 00:55:18;;;;;;;3.30;1.27;;;4.20;83.60;4.40;99703.00;;;;338738;28;86051;-96
2021/04/07 00:55:34;;;;;;;3.58;1.00;;;4.20;83.40;4.40;99703.00;;;;340802;28;92499;-96
2021/04/07 00:55:45;;;;;;;3.45;0.88;;;4.20;83.60;4.40;99701.00;;;;341840;28;89316;-95
2021/04/07 00:55:57;;;;;;;2.40;0.90;;;4.20;83.50;4.40;99702.00;;;;340743;28;88010;-94
2021/04/07 00:56:08;;;;;;;2.28;0.93;;;4.20;83.40;4.40;99697.00;;;;340398;28;86965;-96